Time;durP1;ratioP1;P1;durP2;ratioP2;P2;SDS_P1;SDS_P2;PMS_P1;PMS_P2;Temp;Humidity;BMP_temperature;BMP_pressure;BME280_temperature;BME280_humidity;BME280_pressure;Samples;Min_cycle;Max_cycle;Signal;HPM_P1;HPM_P2
2022/07/01 00:04:46;;;;;;;24.30;6.68;;;;;;;;;;10285413;28;20095;-63
2022/07/01 00:10:03;;;;;;;17.13;6.80;;;;;;;;;;10280386;28;20080;-64
2022/07/01 00:15:03;;;;;;;21.08;6.65;;;;;;;;;;10276049;28;20095;-63
2022/07/01 00:20:02;;;;;;;18.17;5.32;;;;;;;;;;10278898;28;20538;-64
2022/07/01 00:25:00;;;;;;;12.10;5.43;;;;;;;;;;10279623;28;20107;-64
2022/07/01 00:29:58;;;;;;;18.40;5.13;;;;;;;;;;10289915;28;20450;-64
2022/07/01 00:34:58;;;;;;;15.32;5.85;;;;;;;;;;10283173;28;20076;-64
2022/07/01 00:39:56;;;;;;;17.48;6.82;;;;;;;;;;10282725;28;20490;-64
2022/07/01 00:44:55;;;;;;;19.10;5.97;;;;;;;;;;10282704;28;20037;-64
2022/07/01 00:49:53;;;;;;;13.80;5.93;;;;;;;;;;10282611;28;20053;-65
2022/07/01 00:54:54;;;;;;;17.88;5.68;;;;;;;;;;10282404;28;20087;-64
2022/07/01 00:59:52;;;;;;;10.75;5.10;;;;;;;;;;10282396;28;20104;-64
2022/07/01 01:04:51;;;;;;;15.80;6.13;;;;;;;;;;10285506;28;20052;-65
2022/07/01 01:09:49;;;;;;;23.73;6.05;;;;;;;;;;10281871;28;20052;-64
2022/07/01 01:14:50;;;;;;;7.85;5.22;;;;;;;;;;10284676;28;20079;-65
2022/07/01 01:19:48;;;;;;;13.40;6.53;;;;;;;;;;10285138;28;20175;-64
2022/07/01 01:24:48;;;;;;;19.02;5.90;;;;;;;;;;10283799;28;20167;-64
2022/07/01 01:29:46;;;;;;;16.23;6.00;;;;;;;;;;10279283;28;20064;-64
2022/07/01 01:34:44;;;;;;;15.57;6.00;;;;;;;;;;10284068;28;20079;-64
2022/07/01 01:39:43;;;;;;;14.80;6.00;;;;;;;;;;10283098;28;20060;-68
2022/07/01 01:44:42;;;;;;;9.40;4.47;;;;;;;;;;10280538;28;20071;-69
2022/07/01 01:49:41;;;;;;;18.80;5.82;;;;;;;;;;10282951;28;20080;-69
2022/07/01 01:54:39;;;;;;;9.52;4.15;;;;;;;;;;10278702;28;20076;-68
2022/07/01 01:59:38;;;;;;;12.80;4.25;;;;;;;;;;10279727;28;20084;-68
2022/07/01 02:04:38;;;;;;;14.98;4.22;;;;;;;;;;10281659;28;20083;-68
2022/07/01 02:09:37;;;;;;;3.75;2.90;;;;;;;;;;10281374;28;20080;-68
2022/07/01 02:14:35;;;;;;;8.48;4.50;;;;;;;;;;10281066;28;20087;-70
2022/07/01 02:19:33;;;;;;;9.63;4.70;;;;;;;;;;10281388;28;20069;-70
2022/07/01 02:24:33;;;;;;;4.93;3.10;;;;;;;;;;10282319;28;20419;-68
2022/07/01 02:29:32;;;;;;;7.72;5.05;;;;;;;;;;10278320;28;20489;-68
2022/07/01 02:34:30;;;;;;;4.60;3.28;;;;;;;;;;10277357;28;20065;-69
2022/07/01 02:39:29;;;;;;;3.50;2.88;;;;;;;;;;10277186;28;20402;-68
2022/07/01 02:44:28;;;;;;;3.25;2.58;;;;;;;;;;10278148;28;20045;-68
2022/07/01 02:49:27;;;;;;;5.50;2.88;;;;;;;;;;10278306;28;20064;-68
2022/07/01 02:54:25;;;;;;;7.07;3.25;;;;;;;;;;10281837;28;20045;-68
2022/07/01 02:59:23;;;;;;;4.47;3.10;;;;;;;;;;10276120;28;20490;-68
2022/07/01 03:04:23;;;;;;;5.43;3.40;;;;;;;;;;10277100;28;20482;-68
2022/07/01 03:09:21;;;;;;;5.28;3.17;;;;;;;;;;10278089;28;20076;-68
2022/07/01 03:14:20;;;;;;;5.95;3.05;;;;;;;;;;10275849;28;20080;-68
2022/07/01 03:19:18;;;;;;;4.35;3.00;;;;;;;;;;10276741;28;20087;-68
2022/07/01 03:24:18;;;;;;;3.53;2.78;;;;;;;;;;10276025;28;20541;-68
2022/07/01 03:29:16;;;;;;;5.35;3.00;;;;;;;;;;10275961;28;20528;-68
2022/07/01 03:34:14;;;;;;;4.47;2.83;;;;;;;;;;10275353;28;20084;-67
2022/07/01 03:39:12;;;;;;;4.95;3.28;;;;;;;;;;10282635;28;20075;-68
2022/07/01 03:44:12;;;;;;;4.68;2.75;;;;;;;;;;10279237;28;20068;-68
2022/07/01 03:49:11;;;;;;;4.68;3.25;;;;;;;;;;10277036;28;20069;-69
2022/07/01 03:59:26;;;;;;;5.88;2.83;;;;;;;;;;10283601;28;20079;-69
2022/07/01 04:04:25;;;;;;;3.92;3.22;;;;;;;;;;10284770;28;20052;-69
2022/07/01 04:09:24;;;;;;;4.72;3.83;;;;;;;;;;10287158;28;20080;-69
2022/07/01 04:14:24;;;;;;;8.48;4.15;;;;;;;;;;10288206;28;20048;-68
2022/07/01 04:19:23;;;;;;;4.35;3.58;;;;;;;;;;10284424;28;20076;-68
2022/07/01 04:24:24;;;;;;;10.90;4.00;;;;;;;;;;10284884;28;20057;-69
2022/07/01 04:29:22;;;;;;;10.57;3.78;;;;;;;;;;10283904;28;20065;-68
2022/07/01 04:34:20;;;;;;;4.55;3.53;;;;;;;;;;10282707;28;20080;-69
2022/07/01 04:39:20;;;;;;;13.18;3.65;;;;;;;;;;10286229;28;20119;-69
2022/07/01 04:44:18;;;;;;;10.38;3.30;;;;;;;;;;10286700;28;20068;-69
2022/07/01 04:49:17;;;;;;;5.63;3.30;;;;;;;;;;10286941;28;20073;-68
2022/07/01 04:54:15;;;;;;;12.13;5.20;;;;;;;;;;10286130;28;20065;-69
2022/07/01 04:59:15;;;;;;;6.13;3.70;;;;;;;;;;10285196;28;20068;-69
2022/07/01 05:04:13;;;;;;;3.40;2.95;;;;;;;;;;10283130;28;20095;-69
2022/07/01 05:09:12;;;;;;;5.43;3.80;;;;;;;;;;10285013;28;20068;-69
2022/07/01 05:14:10;;;;;;;3.13;2.83;;;;;;;;;;10277927;28;20431;-68
2022/07/01 05:24:28;;;;;;;8.52;3.40;;;;;;;;;;10294925;28;20084;-68
2022/07/01 05:29:26;;;;;;;5.93;3.10;;;;;;;;;;10283786;28;20493;-69
2022/07/01 05:34:26;;;;;;;5.30;2.95;;;;;;;;;;10298184;28;20461;-69
2022/07/01 05:39:25;;;;;;;8.48;2.63;;;;;;;;;;10279666;28;20576;-69
2022/07/01 05:44:23;;;;;;;10.82;2.97;;;;;;;;;;10288488;28;20071;-68
2022/07/01 05:49:21;;;;;;;7.53;3.85;;;;;;;;;;10279912;28;20064;-69
2022/07/01 05:54:21;;;;;;;8.57;4.75;;;;;;;;;;10284267;28;20053;-68
2022/07/01 05:59:19;;;;;;;20.27;4.60;;;;;;;;;;10283219;28;20091;-69
2022/07/01 06:04:17;;;;;;;14.82;4.38;;;;;;;;;;10282133;28;20071;-68
2022/07/01 06:09:16;;;;;;;15.20;4.78;;;;;;;;;;10279936;28;20087;-69
2022/07/01 06:14:16;;;;;;;11.07;3.70;;;;;;;;;;10279686;28;20068;-69
2022/07/01 06:19:14;;;;;;;10.95;4.28;;;;;;;;;;10279757;28;20516;-69
2022/07/01 06:24:12;;;;;;;9.98;4.20;;;;;;;;;;10278415;28;20353;-68
2022/07/01 06:29:11;;;;;;;9.00;4.82;;;;;;;;;;10285271;28;20073;-69
2022/07/01 06:34:11;;;;;;;9.77;3.65;;;;;;;;;;10294789;28;20076;-69
2022/07/01 06:39:09;;;;;;;8.18;4.50;;;;;;;;;;10274697;28;20076;-68
2022/07/01 06:44:07;;;;;;;8.00;4.20;;;;;;;;;;10279036;28;20037;-68
2022/07/01 06:49:06;;;;;;;14.25;4.30;;;;;;;;;;10276201;28;20068;-69
2022/07/01 06:54:05;;;;;;;7.47;3.53;;;;;;;;;;10279727;28;20496;-69
2022/07/01 06:59:04;;;;;;;10.93;3.80;;;;;;;;;;10274054;28;20471;-68
2022/07/01 07:04:02;;;;;;;9.05;5.07;;;;;;;;;;10269475;28;20064;-68
2022/07/01 07:09:00;;;;;;;9.73;4.10;;;;;;;;;;10272747;28;20257;-69
2022/07/01 07:14:00;;;;;;;7.55;3.92;;;;;;;;;;10274490;28;20092;-68
2022/07/01 07:18:58;;;;;;;8.13;3.40;;;;;;;;;;10274634;28;20084;-68
2022/07/01 07:23:57;;;;;;;10.32;3.60;;;;;;;;;;10279876;28;20095;-69
2022/07/01 07:28:55;;;;;;;6.72;3.15;;;;;;;;;;10280865;28;20498;-68
2022/07/01 07:33:55;;;;;;;5.30;3.35;;;;;;;;;;10279424;28;20080;-67
2022/07/01 07:38:53;;;;;;;8.25;3.45;;;;;;;;;;10275737;28;20072;-68
2022/07/01 07:43:52;;;;;;;13.25;3.40;;;;;;;;;;10277781;28;20053;-69
2022/07/01 07:48:50;;;;;;;10.38;5.18;;;;;;;;;;10278945;28;20079;-69
2022/07/01 07:53:50;;;;;;;16.50;4.90;;;;;;;;;;10279468;28;20041;-69
2022/07/01 07:58:48;;;;;;;10.02;4.13;;;;;;;;;;10274127;28;20522;-67
2022/07/01 08:03:47;;;;;;;15.35;5.35;;;;;;;;;;10274821;28;20041;-68
2022/07/01 08:08:46;;;;;;;15.00;5.00;;;;;;;;;;10275964;28;20045;-68
2022/07/01 08:13:46;;;;;;;10.57;5.22;;;;;;;;;;10276331;28;20525;-69
2022/07/01 08:18:44;;;;;;;15.80;4.20;;;;;;;;;;10276517;28;20334;-69
2022/07/01 08:23:42;;;;;;;10.10;4.60;;;;;;;;;;10274765;28;20349;-68
2022/07/01 08:28:42;;;;;;;9.95;4.75;;;;;;;;;;10273766;28;20053;-69
2022/07/01 08:33:42;;;;;;;16.20;4.78;;;;;;;;;;10274441;28;20069;-68
2022/07/01 08:38:42;;;;;;;14.88;4.47;;;;;;;;;;10276418;28;20088;-67
2022/07/01 08:43:40;;;;;;;11.10;4.40;;;;;;;;;;10275036;28;20069;-69
2022/07/01 08:48:45;;;;;;;13.55;3.45;;;;;;;;;;10278020;28;20544;-68
2022/07/01 08:53:45;;;;;;;8.88;3.78;;;;;;;;;;10277780;28;20103;-68
2022/07/01 08:58:45;;;;;;;4.45;3.65;;;;;;;;;;10281480;28;20095;-68
2022/07/01 09:03:46;;;;;;;11.90;4.43;;;;;;;;;;10283107;28;20064;-67
2022/07/01 09:08:46;;;;;;;5.15;3.72;;;;;;;;;;10282223;28;20056;-69
2022/07/01 09:13:45;;;;;;;3.92;3.05;;;;;;;;;;10281703;28;20045;-68
2022/07/01 09:18:58;;;;;;;5.45;2.33;;;;;;;;;;10282526;28;20076;-67
2022/07/01 09:23:59;;;;;;;6.47;3.22;;;;;;;;;;10284962;28;20083;-68
2022/07/01 09:28:59;;;;;;;3.88;3.47;;;;;;;;;;10282000;28;20067;-69
2022/07/01 09:34:04;;;;;;;6.45;2.55;;;;;;;;;;10284439;28;20499;-69
2022/07/01 09:39:07;;;;;;;5.43;2.83;;;;;;;;;;10284254;28;20084;-69
2022/07/01 09:44:27;;;;;;;7.05;3.28;;;;;;;;;;10289909;28;20091;-69
2022/07/01 09:49:26;;;;;;;3.03;2.25;;;;;;;;;;10280724;28;20088;-69
2022/07/01 09:54:25;;;;;;;8.85;3.40;;;;;;;;;;10280984;28;20077;-68
2022/07/01 09:59:24;;;;;;;3.78;2.53;;;;;;;;;;10282100;28;20128;-68
2022/07/01 10:04:22;;;;;;;6.25;2.60;;;;;;;;;;10280514;28;20065;-68
2022/07/01 10:09:27;;;;;;;7.60;3.00;;;;;;;;;;10279234;28;20071;-68
2022/07/01 10:14:27;;;;;;;7.40;2.92;;;;;;;;;;10278294;28;20052;-70
2022/07/01 10:19:35;;;;;;;4.72;3.03;;;;;;;;;;10277691;28;20091;-69
2022/07/01 10:24:33;;;;;;;5.40;2.40;;;;;;;;;;10281327;28;20089;-65
2022/07/01 10:29:35;;;;;;;8.48;2.88;;;;;;;;;;10280726;28;20473;-67
2022/07/01 10:34:35;;;;;;;8.95;2.88;;;;;;;;;;10278631;28;20045;-68
2022/07/01 10:39:49;;;;;;;5.82;2.30;;;;;;;;;;10284758;28;20068;-69
2022/07/01 10:45:05;;;;;;;7.50;2.90;;;;;;;;;;10278027;28;20083;-68
2022/07/01 10:50:06;;;;;;;5.72;2.63;;;;;;;;;;10280749;28;20061;-69
2022/07/01 10:55:06;;;;;;;6.50;2.70;;;;;;;;;;10274843;28;20080;-67
2022/07/01 11:00:29;;;;;;;5.57;2.92;;;;;;;;;;10279243;28;20516;-68
2022/07/01 11:05:29;;;;;;;5.13;3.03;;;;;;;;;;10276831;28;20080;-70
2022/07/01 11:10:27;;;;;;;11.60;3.63;;;;;;;;;;10274993;28;20502;-69
2022/07/01 11:15:30;;;;;;;6.45;3.78;;;;;;;;;;10274603;28;20095;-69
2022/07/01 11:20:30;;;;;;;7.57;3.30;;;;;;;;;;10283663;28;20087;-70
2022/07/01 11:25:30;;;;;;;12.18;3.38;;;;;;;;;;10274713;28;20071;-69
2022/07/01 11:30:28;;;;;;;5.03;3.50;;;;;;;;;;10275345;28;20473;-68
2022/07/01 11:40:45;;;;;;;12.60;4.45;;;;;;;;;;10275455;28;20076;-68
2022/07/01 11:45:44;;;;;;;7.75;3.42;;;;;;;;;;10276114;28;20076;-68
2022/07/01 11:50:42;;;;;;;11.18;3.83;;;;;;;;;;10275520;28;20080;-69
2022/07/01 11:55:46;;;;;;;9.57;2.97;;;;;;;;;;10275718;28;20045;-68
2022/07/01 12:00:45;;;;;;;12.20;3.60;;;;;;;;;;10278363;28;20068;-69
2022/07/01 12:05:43;;;;;;;11.63;4.00;;;;;;;;;;10278846;28;20072;-69
2022/07/01 12:10:41;;;;;;;10.23;3.90;;;;;;;;;;10276258;28;20467;-69
2022/07/01 12:15:41;;;;;;;7.78;3.40;;;;;;;;;;10276352;28;20049;-69
2022/07/01 12:20:39;;;;;;;8.85;4.20;;;;;;;;;;10275813;28;20088;-70
2022/07/01 12:25:38;;;;;;;10.57;3.60;;;;;;;;;;10284109;28;20076;-69
2022/07/01 12:30:37;;;;;;;7.13;3.75;;;;;;;;;;10283715;28;20079;-70
2022/07/01 12:35:42;;;;;;;8.75;4.05;;;;;;;;;;10307836;28;20051;-69
2022/07/01 12:40:40;;;;;;;11.73;3.95;;;;;;;;;;10283930;28;20095;-69
2022/07/01 12:45:40;;;;;;;10.43;3.97;;;;;;;;;;10285192;28;20085;-68
2022/07/01 12:50:41;;;;;;;5.53;3.45;;;;;;;;;;10280465;28;20077;-68
2022/07/01 12:55:40;;;;;;;10.82;3.67;;;;;;;;;;10278859;28;20079;-69
2022/07/01 13:00:38;;;;;;;9.85;4.07;;;;;;;;;;10281749;28;20461;-68
2022/07/01 13:05:39;;;;;;;8.88;4.45;;;;;;;;;;10278556;28;20068;-69
2022/07/01 13:10:39;;;;;;;11.90;4.40;;;;;;;;;;10278993;28;20083;-69
2022/07/01 13:15:38;;;;;;;8.93;4.28;;;;;;;;;;10276884;28;20076;-69
2022/07/01 13:20:38;;;;;;;14.80;4.75;;;;;;;;;;10276448;28;20372;-69
2022/07/01 13:25:36;;;;;;;12.88;4.78;;;;;;;;;;10282913;28;20072;-69
2022/07/01 13:30:37;;;;;;;7.05;4.40;;;;;;;;;;10280942;28;20077;-70
2022/07/01 13:35:35;;;;;;;6.05;4.53;;;;;;;;;;10279363;28;20092;-68
2022/07/01 13:40:34;;;;;;;7.63;4.13;;;;;;;;;;10279910;28;20053;-69
2022/07/01 13:45:32;;;;;;;11.32;4.05;;;;;;;;;;10279600;28;20041;-68
2022/07/01 13:50:32;;;;;;;8.55;3.95;;;;;;;;;;10279388;28;20471;-67
2022/07/01 13:55:30;;;;;;;6.30;3.50;;;;;;;;;;10279831;28;20078;-68
2022/07/01 14:00:29;;;;;;;8.32;4.00;;;;;;;;;;10279201;28;20067;-68
2022/07/01 14:05:27;;;;;;;5.68;4.13;;;;;;;;;;10278996;28;20499;-69
2022/07/01 14:10:27;;;;;;;15.15;4.93;;;;;;;;;;10278514;28;20052;-69
2022/07/01 14:15:25;;;;;;;8.18;3.53;;;;;;;;;;10279016;28;20490;-70
2022/07/01 14:20:24;;;;;;;8.73;3.47;;;;;;;;;;10285715;28;20084;-70
2022/07/01 14:25:22;;;;;;;4.68;3.10;;;;;;;;;;10278244;28;20366;-70
2022/07/01 14:30:22;;;;;;;6.13;3.58;;;;;;;;;;10277425;28;20085;-69
2022/07/01 14:35:20;;;;;;;4.82;3.85;;;;;;;;;;10278171;28;20413;-69
2022/07/01 14:40:19;;;;;;;14.93;4.90;;;;;;;;;;10287118;28;20045;-68
2022/07/01 14:45:17;;;;;;;5.60;3.38;;;;;;;;;;10280936;28;20040;-68
2022/07/01 14:50:17;;;;;;;5.45;2.95;;;;;;;;;;10276892;28;20072;-68
2022/07/01 14:55:15;;;;;;;7.63;3.45;;;;;;;;;;10276475;28;20056;-68
2022/07/01 15:00:14;;;;;;;7.68;3.30;;;;;;;;;;10280998;28;20076;-68
2022/07/01 15:05:13;;;;;;;10.82;3.95;;;;;;;;;;10279541;28;20095;-69
2022/07/01 15:10:12;;;;;;;9.00;3.80;;;;;;;;;;10276841;28;20088;-69
2022/07/01 15:15:11;;;;;;;5.57;3.33;;;;;;;;;;10276276;28;20048;-69
2022/07/01 15:20:09;;;;;;;13.52;7.15;;;;;;;;;;10276115;28;20044;-69
2022/07/01 15:25:08;;;;;;;9.40;4.60;;;;;;;;;;10277064;28;20096;-69
2022/07/01 15:30:09;;;;;;;9.95;5.25;;;;;;;;;;10276506;28;20096;-68
2022/07/01 15:35:09;;;;;;;8.60;5.03;;;;;;;;;;10275633;28;20471;-69
2022/07/01 15:40:08;;;;;;;4.45;3.25;;;;;;;;;;10276271;28;20049;-68
2022/07/01 15:45:09;;;;;;;6.80;3.72;;;;;;;;;;10276224;28;20083;-69
2022/07/01 15:50:07;;;;;;;5.88;3.10;;;;;;;;;;10275299;28;20092;-68
2022/07/01 15:55:08;;;;;;;5.90;3.22;;;;;;;;;;10275820;28;20073;-69
2022/07/01 16:00:09;;;;;;;8.15;3.28;;;;;;;;;;10288117;28;20052;-67
2022/07/01 16:05:09;;;;;;;9.90;4.30;;;;;;;;;;10296256;28;20084;-69
2022/07/01 16:10:08;;;;;;;4.78;3.35;;;;;;;;;;10283041;28;20094;-69
2022/07/01 16:15:10;;;;;;;5.65;4.18;;;;;;;;;;10283153;28;20080;-68
2022/07/01 16:20:09;;;;;;;3.88;2.92;;;;;;;;;;10283142;28;20466;-69
2022/07/01 16:25:11;;;;;;;8.85;5.55;;;;;;;;;;10289565;28;20096;-69
2022/07/01 16:30:11;;;;;;;11.70;3.75;;;;;;;;;;10283218;28;20095;-69
2022/07/01 16:35:10;;;;;;;10.90;5.47;;;;;;;;;;10281122;28;20049;-70
2022/07/01 16:40:12;;;;;;;5.82;3.03;;;;;;;;;;10281218;28;20056;-68
2022/07/01 16:45:12;;;;;;;7.13;4.30;;;;;;;;;;10281779;28;20088;-70
2022/07/01 16:50:14;;;;;;;12.73;10.65;;;;;;;;;;10282046;28;20076;-66
2022/07/01 16:55:14;;;;;;;10.30;7.47;;;;;;;;;;10281359;28;20084;-64
2022/07/01 17:00:19;;;;;;;27.20;24.45;;;;;;;;;;10283077;28;20060;-65
2022/07/01 17:05:18;;;;;;;7.65;3.90;;;;;;;;;;10284341;28;20052;-65
2022/07/01 17:10:17;;;;;;;8.63;6.03;;;;;;;;;;10277853;28;20060;-66
2022/07/01 17:15:17;;;;;;;5.57;4.28;;;;;;;;;;10280617;28;20379;-65
2022/07/01 17:20:16;;;;;;;11.50;10.27;;;;;;;;;;10281403;28;20048;-65
2022/07/01 17:25:26;;;;;;;43.17;38.60;;;;;;;;;;10283500;28;20069;-65
2022/07/01 17:30:32;;;;;;;13.13;11.68;;;;;;;;;;10312872;28;20075;-65
2022/07/01 17:35:34;;;;;;;18.92;16.95;;;;;;;;;;10303533;28;20167;-65
2022/07/01 17:40:33;;;;;;;11.90;10.57;;;;;;;;;;10300955;28;20056;-64
2022/07/01 17:45:33;;;;;;;12.07;10.30;;;;;;;;;;10314833;28;20074;-65
2022/07/01 17:50:31;;;;;;;11.40;10.20;;;;;;;;;;10288083;28;20524;-66
2022/07/01 17:55:31;;;;;;;21.60;15.18;;;;;;;;;;10282747;28;20071;-63
2022/07/01 18:00:31;;;;;;;17.60;12.32;;;;;;;;;;10280774;28;20087;-66
2022/07/01 18:05:31;;;;;;;15.68;13.15;;;;;;;;;;10279070;28;20410;-65
2022/07/01 18:10:33;;;;;;;6.97;4.72;;;;;;;;;;10278517;28;20045;-66
2022/07/01 18:15:35;;;;;;;5.70;4.37;;;;;;;;;;10279789;28;20060;-65
2022/07/01 18:20:41;;;;;;;14.25;9.75;;;;;;;;;;10279852;28;20083;-65
2022/07/01 18:25:41;;;;;;;6.60;3.13;;;;;;;;;;10279757;28;20088;-65
2022/07/01 18:30:41;;;;;;;30.38;18.63;;;;;;;;;;10279115;28;20481;-65
2022/07/01 18:35:41;;;;;;;6.00;5.03;;;;;;;;;;10279733;28;20048;-65
2022/07/01 18:40:39;;;;;;;18.08;16.20;;;;;;;;;;10277400;28;20048;-66
2022/07/01 18:45:38;;;;;;;10.68;6.95;;;;;;;;;;10276985;28;20044;-64
2022/07/01 18:50:36;;;;;;;9.98;4.65;;;;;;;;;;10281197;28;20152;-66
2022/07/01 18:55:36;;;;;;;6.88;4.75;;;;;;;;;;10275535;28;20049;-66
2022/07/01 19:00:36;;;;;;;6.13;4.40;;;;;;;;;;10276283;28;20052;-65
2022/07/01 19:05:34;;;;;;;10.13;4.72;;;;;;;;;;10280258;28;20091;-67
2022/07/01 19:10:33;;;;;;;6.40;5.45;;;;;;;;;;10277780;28;20487;-65
2022/07/01 19:15:33;;;;;;;7.03;4.57;;;;;;;;;;10301759;28;20040;-65
2022/07/01 19:20:32;;;;;;;10.00;5.03;;;;;;;;;;10282461;28;20069;-65
2022/07/01 19:25:30;;;;;;;13.05;5.45;;;;;;;;;;10277311;28;20060;-65
2022/07/01 19:30:28;;;;;;;7.70;4.30;;;;;;;;;;10275415;28;20048;-64
2022/07/01 19:35:28;;;;;;;9.20;4.07;;;;;;;;;;10275610;28;20076;-65
2022/07/01 19:40:26;;;;;;;7.20;4.28;;;;;;;;;;10275559;28;20048;-65
2022/07/01 19:45:25;;;;;;;5.30;4.05;;;;;;;;;;10275430;28;20037;-65
2022/07/01 19:50:23;;;;;;;4.15;3.45;;;;;;;;;;10277061;28;20049;-65
2022/07/01 19:55:23;;;;;;;5.47;3.70;;;;;;;;;;10275019;28;20425;-64
2022/07/01 20:00:21;;;;;;;6.53;3.55;;;;;;;;;;10274917;28;20072;-65
2022/07/01 20:05:20;;;;;;;6.38;3.75;;;;;;;;;;10274235;28;20076;-66
2022/07/01 20:10:18;;;;;;;8.18;3.75;;;;;;;;;;10278561;28;20076;-66
2022/07/01 20:15:18;;;;;;;4.47;3.92;;;;;;;;;;10278107;28;20073;-65
2022/07/01 20:20:16;;;;;;;8.27;3.85;;;;;;;;;;10274713;28;20498;-66
2022/07/01 20:25:14;;;;;;;6.57;3.42;;;;;;;;;;10274773;28;20084;-65
2022/07/01 20:30:13;;;;;;;4.05;3.75;;;;;;;;;;10276317;28;20073;-65
2022/07/01 20:35:13;;;;;;;4.43;3.63;;;;;;;;;;10274502;28;20037;-65
2022/07/01 20:40:11;;;;;;;5.25;3.85;;;;;;;;;;10274915;28;20050;-65
2022/07/01 20:45:10;;;;;;;7.40;4.20;;;;;;;;;;10279772;28;20084;-64
2022/07/01 20:50:09;;;;;;;10.45;4.78;;;;;;;;;;10282688;28;20072;-66
2022/07/01 20:55:09;;;;;;;5.60;3.80;;;;;;;;;;10281593;28;20085;-65
2022/07/01 21:00:08;;;;;;;8.10;4.45;;;;;;;;;;10281146;28;20417;-66
2022/07/01 21:05:06;;;;;;;5.18;4.40;;;;;;;;;;10281504;28;20096;-65
2022/07/01 21:10:09;;;;;;;4.03;3.63;;;;;;;;;;10285097;28;20053;-65
2022/07/01 21:15:08;;;;;;;5.70;4.35;;;;;;;;;;10281807;28;20080;-64
2022/07/01 21:20:07;;;;;;;8.95;4.25;;;;;;;;;;10278586;28;20080;-65
2022/07/01 21:25:06;;;;;;;5.38;4.03;;;;;;;;;;10280977;28;20099;-66
2022/07/01 21:30:06;;;;;;;6.05;5.00;;;;;;;;;;10284194;28;20079;-66
2022/07/01 21:35:05;;;;;;;3.60;3.30;;;;;;;;;;10279959;28;20088;-64
2022/07/01 21:40:05;;;;;;;4.20;3.65;;;;;;;;;;10284158;28;20080;-64
2022/07/01 21:45:03;;;;;;;4.07;3.67;;;;;;;;;;10281046;28;20111;-64
2022/07/01 21:50:03;;;;;;;6.38;4.28;;;;;;;;;;10279426;28;20037;-64
2022/07/01 21:55:04;;;;;;;4.60;4.20;;;;;;;;;;10278531;28;20437;-64
2022/07/01 22:00:04;;;;;;;5.88;4.32;;;;;;;;;;10279068;28;20075;-64
2022/07/01 22:05:06;;;;;;;;;;;;;;;;;;10282351;28;20084;-65
2022/07/01 22:10:06;;;;;;;5.90;4.38;;;;;;;;;;10280437;28;20370;-65
2022/07/01 22:15:06;;;;;;;7.40;3.83;;;;;;;;;;10283065;28;20081;-65
2022/07/01 22:20:05;;;;;;;5.50;4.18;;;;;;;;;;10278916;28;20076;-65
2022/07/01 22:25:04;;;;;;;6.47;3.92;;;;;;;;;;10277980;28;20115;-65
2022/07/01 22:30:04;;;;;;;6.68;3.95;;;;;;;;;;10279267;28;20083;-65
2022/07/01 22:35:02;;;;;;;4.90;4.32;;;;;;;;;;10279758;28;20049;-65
2022/07/01 22:40:02;;;;;;;5.53;4.32;;;;;;;;;;10281029;28;20096;-64
2022/07/01 22:45:02;;;;;;;11.40;3.90;;;;;;;;;;10280824;28;20080;-66
2022/07/01 22:50:07;;;;;;;8.23;4.50;;;;;;;;;;10281633;28;20079;-65
2022/07/01 22:55:11;;;;;;;5.55;3.40;;;;;;;;;;10274996;28;20093;-64
2022/07/01 23:00:10;;;;;;;6.00;4.03;;;;;;;;;;10279859;28;20073;-65
2022/07/01 23:05:10;;;;;;;4.97;3.97;;;;;;;;;;10279761;28;20095;-66
2022/07/01 23:10:11;;;;;;;5.60;4.40;;;;;;;;;;10278087;28;20521;-65
2022/07/01 23:20:27;;;;;;;5.25;4.28;;;;;;;;;;10277796;28;20083;-65
2022/07/01 23:25:26;;;;;;;5.20;4.53;;;;;;;;;;10276724;28;20088;-65
2022/07/01 23:30:24;;;;;;;10.30;4.03;;;;;;;;;;10280774;28;20087;-64
2022/07/01 23:35:24;;;;;;;6.25;4.70;;;;;;;;;;10280049;28;20048;-65
2022/07/01 23:40:24;;;;;;;7.03;3.83;;;;;;;;;;10279314;28;20080;-65
2022/07/01 23:45:23;;;;;;;7.65;4.38;;;;;;;;;;10276948;28;20080;-64
2022/07/01 23:50:21;;;;;;;4.43;4.03;;;;;;;;;;10276134;28;20064;-64
2022/07/01 23:55:19;;;;;;;12.95;4.28;;;;;;;;;;10274720;28;20048;-65
